• Join FlightAware (Why Join?)
  • Login
  • US Flag 
01:11AM EDT


 

Airport Tracker/Info


-or-


 

Live Flight TrackerFlight Track Log ✈ N63981 ✈ 09-Jul-2013 ✈ KTEB - 2G9

Flight Track Log - Related Links

Times and Time Zones

All times are in EDT time to prevent confusion due to time zone crossing. See the N63981 flight status page for this flight to view local times or setup timezone preferences in your user account.

Time Position Orientation Groundspeed Altitude Reporting Facility
EDT Latitude Longitude Course Direction KTS MPH feet Rate Location/Type
03:13PM 40.8333 -74.1333 270° West 101 116 800  Level New York TRACON
03:14PM 40.8167 -74.1667 237° Southwest 99 114 1,100 360 Climbing New York TRACON
03:15PM 40.8167 -74.2000 270° West 96 110 1,600 360 Climbing New York TRACON
03:16PM 40.8167 -74.2333 270° West 110 127 1,900 300 Climbing New York TRACON
03:17PM 40.8000 -74.2667 237° Southwest 111 128 2,300 420 Climbing New York TRACON
03:18PM 40.7833 -74.2833 217° Southwest 106 122 2,800 480 Climbing New York TRACON
03:19PM 40.7667 -74.3167 237° Southwest 111 128 3,300 480 Climbing New York TRACON
03:20PM 40.7500 -74.3500 237° Southwest 109 125 3,800 360 Climbing New York TRACON
03:21PM 40.7333 -74.3833 237° Southwest 121 139 4,000 120 Climbing New York TRACON
03:22PM 40.7167 -74.4333 246° West 135 155 4,100  Climbing New York TRACON
03:23PM 40.7000 -74.4833 246° West 137 158 4,000  Descending New York TRACON
03:24PM 40.6833 -74.5167 237° Southwest 133 153 4,100  Climbing New York TRACON
03:25PM 40.6667 -74.5667 246° West 135 155 4,000  Descending New York TRACON
03:27PM 40.6455 -74.6490 251° West  Level FlightAware Approximate
03:34PM 40.5567 -74.9910 251° West  Level FlightAware Approximate
03:35PM 40.5500 -75.0419 270° West  Level FlightAware Approximate
03:36PM 40.5513 -75.0935 272° West  Level FlightAware Approximate
03:37PM 40.5527 -75.1450 272° West  Level FlightAware Approximate
03:38PM 40.5542 -75.1966 272° West  Level FlightAware Approximate
03:39PM 40.5556 -75.2482 272° West  Level FlightAware Approximate
03:40PM 40.5570 -75.2997 272° West  Level FlightAware Approximate
03:41PM 40.5584 -75.3513 272° West  Level FlightAware Approximate
03:42PM 40.5597 -75.4029 272° West  Level FlightAware Approximate
03:43PM 40.5610 -75.4544 272° West  Level FlightAware Approximate
03:44PM 40.5624 -75.5060 272° West  Level FlightAware Approximate
03:45PM 40.5636 -75.5576 272° West  Level FlightAware Approximate
03:46PM 40.5649 -75.6092 272° West  Level FlightAware Approximate
03:47PM 40.5661 -75.6608 272° West  Level FlightAware Approximate
03:48PM 40.5591 -75.7106 250° West  Level FlightAware Approximate
03:49PM 40.5457 -75.7591 250° West  Level FlightAware Approximate
03:50PM 40.5323 -75.8075 250° West  Level FlightAware Approximate
03:51PM 40.5188 -75.8560 250° West  Level FlightAware Approximate
03:52PM 40.5054 -75.9044 250° West  Level FlightAware Approximate
03:53PM 40.4919 -75.9528 250° West  Level FlightAware Approximate
03:54PM 40.4807 -76.0020 259° West  Level FlightAware Approximate
03:55PM 40.4734 -76.0527 259° West  Level FlightAware Approximate
03:56PM 40.4659 -76.1032 252° West  Level FlightAware Approximate
03:57PM 40.4536 -76.1522 252° West  Level FlightAware Approximate
03:58PM 40.4389 -76.1999 246° West  Level FlightAware Approximate
03:59PM 40.4232 -76.2471 246° West  Level FlightAware Approximate
04:00PM 40.4075 -76.2942 246° West  Level FlightAware Approximate
04:01PM 40.3932 -76.3421 251° West  Level FlightAware Approximate
04:02PM 40.3802 -76.3907 251° West  Level FlightAware Approximate
04:03PM 40.3672 -76.4392 251° West  Level FlightAware Approximate
04:04PM 40.3542 -76.4877 251° West  Level FlightAware Approximate
04:05PM 40.3411 -76.5362 251° West  Level FlightAware Approximate
04:06PM 40.3281 -76.5847 251° West  Level FlightAware Approximate
04:07PM 40.3139 -76.6371 251° West  Level FlightAware Approximate
04:08PM 40.2998 -76.6894 250° West  Level FlightAware Approximate
04:09PM 40.2856 -76.7417 250° West  Level FlightAware Approximate
04:10PM 40.2786 -76.7963 262° West  Level FlightAware Approximate
04:11PM 40.2730 -76.8513 262° West  Level FlightAware Approximate
04:12PM 40.2674 -76.9063 262° West  Level FlightAware Approximate
04:13PM 40.2618 -76.9613 262° West  Level FlightAware Approximate
04:14PM 40.2561 -77.0163 262° West  Level FlightAware Approximate
04:15PM 40.2504 -77.0712 262° West  Level FlightAware Approximate
04:16PM 40.2447 -77.1262 262° West  Level FlightAware Approximate
04:17PM 40.2389 -77.1811 262° West  Level FlightAware Approximate
04:18PM 40.2331 -77.2361 262° West  Level FlightAware Approximate
04:19PM 40.2273 -77.2910 262° West  Level FlightAware Approximate
04:20PM 40.2215 -77.3459 262° West  Level FlightAware Approximate
04:21PM 40.2156 -77.4008 262° West  Level FlightAware Approximate
04:22PM 40.2097 -77.4557 262° West  Level FlightAware Approximate
04:23PM 40.2038 -77.5106 262° West  Level FlightAware Approximate
04:24PM 40.1979 -77.5655 262° West  Level FlightAware Approximate
04:25PM 40.1919 -77.6204 262° West  Level FlightAware Approximate
04:26PM 40.1859 -77.6752 262° West  Level FlightAware Approximate
04:27PM 40.1799 -77.7301 262° West  Level FlightAware Approximate
04:28PM 40.1739 -77.7850 262° West  Level FlightAware Approximate
04:29PM 40.1678 -77.8398 262° West  Level FlightAware Approximate
04:30PM 40.1632 -77.8949 264° West  Level FlightAware Approximate
04:31PM 40.1590 -77.9500 264° West  Level FlightAware Approximate
04:32PM 40.1548 -78.0051 264° West  Level FlightAware Approximate
04:33PM 40.1505 -78.0602 264° West  Level FlightAware Approximate
04:34PM 40.1427 -78.1146 259° West  Level FlightAware Approximate
04:35PM 40.1343 -78.1689 259° West  Level FlightAware Approximate
04:35PM 40.1656 -77.8472 261° West 130 150 6,100  Level Cleveland Center
04:36PM 40.1260 -78.2232 259° West  Level FlightAware Approximate
04:36PM 40.1625 -77.8853 264° West 130 150 6,100  Level Cleveland Center
04:37PM 40.1176 -78.2775 259° West  Level FlightAware Approximate
04:37PM 40.1550 -77.9317 258° West 129 148 6,100  Level Cleveland Center
04:38PM 40.1109 -78.3321 261° West  Level FlightAware Approximate
04:38PM 40.1500 -77.9783 262° West 128 147 6,100  Level Cleveland Center
04:39PM 40.1044 -78.3868 261° West  Level FlightAware Approximate
04:39PM 40.1467 -78.0164 263° West 127 146 6,100  Level Cleveland Center
04:40PM 40.0979 -78.4415 261° West  Level FlightAware Approximate
04:40PM 40.1414 -78.0656 262° West 126 145 6,100  Level Cleveland Center
04:41PM 40.1383 -78.1117 265° West 129 148 6,000 -60 Descending Cleveland Center
04:42PM 40.1353 -78.1608 265° West 125 144 6,000  Level Cleveland Center
04:43PM 40.1403 -78.2014 279° West 124 143 6,000  Level Cleveland Center
04:44PM 40.1433 -78.2500 275° West 125 144 6,000  Level Cleveland Center
04:45PM 40.1464 -78.2933 275° West 125 144 6,000  Level Cleveland Center
04:46PM 40.1494 -78.3394 275° West 124 143 6,000 -300 Level Cleveland Center
04:47PM 40.1544 -78.3908 277° West 145 167 5,400 -540 Descending Cleveland Center
04:48PM 40.1597 -78.4478 277° West 151 174 5,000 -240 Descending Cleveland Center
04:49PM 40.1628 -78.4967 275° West 144 166 5,000  Level Cleveland Center
04:50PM 40.1656 -78.5456 274° West 132 152 5,000  Level Cleveland Center
04:51PM 40.1686 -78.5942 275° West 131 151 5,000  Level Cleveland Center
04:52PM 40.1736 -78.6431 278° West 130 150 5,000 -60 Level Cleveland Center
04:53PM 40.1744 -78.6864 271° West 124 143 4,900 -300 Descending Cleveland Center
04:54PM 40.1814 -78.7381 280° West 137 158 4,500 -240 Descending Cleveland Center
04:55PM 40.1653 -78.7764 241° Southwest 122 140 4,500  Level Cleveland Center
04:56PM 40.1472 -78.8067 232° Southwest 108 124 4,500 -240 Level Cleveland Center
04:57PM 40.1289 -78.8453 238° Southwest 112 129 4,100 -360 Descending Cleveland Center
04:58PM 40.1086 -78.8811 234° Southwest 125 144 3,800 -300 Descending Cleveland Center